Impacts METAR Board
IDs:

KSGR - Houston/Sugar Land R, TX, US

Updated at: 0600 UTC 19 Aug 2019
Potential Impact None Slight Moderate High
Time 18/18Z 18/19Z 18/20Z 18/21Z 18/22Z 18/23Z 19/00Z 19/01Z 19/02Z 19/03Z 19/04Z 19/05Z 19/06Z
Temp86 93 95 95 95 92 91 88 85 84 82 80 80
Dewpt76 79 78 77 76 77 76 77 77 78 78 78 78
Altim29.93 29.91 29.90 29.88 29.87 29.87 29.88 29.89 29.90 29.91 29.93 29.93 29.93
VIS10 10 10 10 10 10 10 10 10 10 10 10 10
CIG100 -- -- -- -- -- -- -- -- -- -- -- --
CoverOVCCLRFEWCLRFEWFEWCLRCLRCLRCLRCLRCLRCLR
FltCatVFRVFRVFRVFRVFRVFRVFRVFRVFRVFRVFRVFRVFR
WX--------------------------
WDir220200200160200160170160160160160170170
WSpd7 13 11 17 9 14 13 11 10 10 6 6 8
WGst-- 21 -- 21 -- -- -- -- -- -- -- -- --
Raw hourly METARs
KSGR 181753Z 22007KT 10SM OVC100 30/24 A2993 RMK AO2 LTG DSNT E RAB06E16 TSB1654E09 SLP134 P0000 60007 T03000244 10333 20250 50001 $
KSGR 181853Z 20013G21KT 10SM CLR 34/26 A2991 RMK AO2 LTG DSNT E SLP128 T03390261 $
KSGR 181953Z 20011KT 10SM FEW038 35/26 A2990 RMK AO2 SLP125 T03500256 $
KSGR 182053Z 16017G21KT 10SM CLR 35/25 A2988 RMK AO2 SLP119 T03500250 58015 $
KSGR 182153Z 20009KT 10SM FEW045 35/24 A2987 RMK AO2 SLP115 T03500244 $
KSGR 182253Z 16014KT 10SM FEW045 FEW050 33/25 A2987 RMK AO2 SLP116 T03330250 $
KSGR 182353Z 17013KT 10SM CLR 33/24 A2988 RMK AO2 SLP118 T03280244 10350 20300 55001 $
KSGR 190053Z 16011KT 10SM CLR 31/25 A2989 RMK AO2 SLP121 T03110250 $
KSGR 190153Z 16010KT 10SM CLR 29/25 A2990 RMK AO2 SLP124 T02940250 $
KSGR 190253Z AUTO 16010KT 10SM CLR 29/26 A2991 RMK AO2 SLP129 T02890256 53012 $
KSGR 190353Z AUTO 16006KT 10SM CLR 28/26 A2993 RMK AO2 SLP135 T02780256 $
KSGR 190453Z AUTO 17006KT 10SM CLR 27/26 A2993 RMK AO2 SLP136 T02670256 $
KSGR 190553Z AUTO 17008KT 10SM CLR 27/26 A2993 RMK AO2 SLP135 T02670256 10328 20267 403500250 50006 $



Page loaded:  06:04 UTC  |   11:04 PM Pacific  |   12:04 AM Mountain  |   01:04 AM Central  |   02:04 AM Eastern

 

ADVISORIES

FORECASTS

FORECASTS

OBSERVATIONS

USER TOOLS

ABOUT US